Time;durP1;ratioP1;P1;durP2;ratioP2;P2;SDS_P1;SDS_P2;PMS_P1;PMS_P2;Temp;Humidity;BMP_temperature;BMP_pressure;BME280_temperature;BME280_humidity;BME280_pressure;Samples;Min_cycle;Max_cycle;Signal;HPM_P1;HPM_P2
2022/03/12 00:01:29;;;;;;;14.10;8.10;;;;;;;;;;5067136;28;20209;-82
2022/03/12 00:03:58;;;;;;;11.73;7.70;;;;;;;;;;5067297;28;20192;-81
2022/03/12 00:06:25;;;;;;;15.77;9.03;;;;;;;;;;5064579;28;20188;-81
2022/03/12 00:08:53;;;;;;;14.40;8.30;;;;;;;;;;5049300;28;20189;-81
2022/03/12 00:11:22;;;;;;;11.67;8.03;;;;;;;;;;5063130;28;20236;-83
2022/03/12 00:13:49;;;;;;;10.50;7.97;;;;;;;;;;5064761;28;20613;-81
2022/03/12 00:16:22;;;;;;;15.37;8.60;;;;;;;;;;5067139;28;20193;-83
2022/03/12 00:18:52;;;;;;;12.50;8.67;;;;;;;;;;5067578;28;20233;-81
2022/03/12 00:21:27;;;;;;;12.57;8.63;;;;;;;;;;5067029;28;20213;-81
2022/03/12 00:23:55;;;;;;;11.27;8.53;;;;;;;;;;5062530;28;20178;-80
2022/03/12 00:26:25;;;;;;;11.07;8.47;;;;;;;;;;5068329;28;20524;-81
2022/03/12 00:28:54;;;;;;;12.67;8.70;;;;;;;;;;5066912;28;20238;-80
2022/03/12 00:31:21;;;;;;;11.07;7.37;;;;;;;;;;5066928;28;20212;-80
2022/03/12 00:33:47;;;;;;;12.40;7.93;;;;;;;;;;5068612;28;20185;-80
2022/03/12 00:36:15;;;;;;;10.97;8.00;;;;;;;;;;5062346;28;20353;-80
2022/03/12 00:38:41;;;;;;;10.40;7.70;;;;;;;;;;5060448;28;20250;-81
2022/03/12 00:41:08;;;;;;;10.40;7.67;;;;;;;;;;5059977;28;20216;-80
2022/03/12 00:43:34;;;;;;;13.40;8.33;;;;;;;;;;5061026;28;20177;-83
2022/03/12 00:46:01;;;;;;;12.07;8.27;;;;;;;;;;5062737;28;20185;-80
2022/03/12 00:48:28;;;;;;;15.33;7.73;;;;;;;;;;5061918;28;20272;-80
2022/03/12 00:50:55;;;;;;;8.60;6.97;;;;;;;;;;5063737;28;20283;-81
2022/03/12 00:53:21;;;;;;;10.43;7.77;;;;;;;;;;5056629;28;20228;-82
2022/03/12 00:55:47;;;;;;;10.50;8.00;;;;;;;;;;5060344;28;20204;-80
2022/03/12 00:58:14;;;;;;;12.37;8.47;;;;;;;;;;5061592;28;20197;-82
2022/03/12 01:00:40;;;;;;;15.43;9.60;;;;;;;;;;5065394;28;20269;-80
2022/03/12 01:03:06;;;;;;;14.07;9.40;;;;;;;;;;5065590;28;20182;-80
2022/03/12 01:05:50;;;;;;;11.83;8.30;;;;;;;;;;5062591;28;20186;-79
2022/03/12 01:08:18;;;;;;;10.70;7.77;;;;;;;;;;5063134;28;20189;-81
2022/03/12 01:10:44;;;;;;;11.77;7.93;;;;;;;;;;5071484;28;20261;-80
2022/03/12 01:13:11;;;;;;;13.40;8.37;;;;;;;;;;5053541;28;20189;-80
2022/03/12 01:15:38;;;;;;;13.70;9.20;;;;;;;;;;5072469;28;20184;-80
2022/03/12 01:18:04;;;;;;;15.10;8.47;;;;;;;;;;5068487;28;20181;-81
2022/03/12 01:20:30;;;;;;;15.80;11.00;;;;;;;;;;5054356;28;20213;-81
2022/03/12 01:22:56;;;;;;;14.83;9.87;;;;;;;;;;5067765;28;20177;-81
2022/03/12 01:25:22;;;;;;;12.13;7.77;;;;;;;;;;5069473;28;20276;-81
2022/03/12 01:27:48;;;;;;;15.20;8.47;;;;;;;;;;5038904;28;20185;-80
2022/03/12 01:30:25;;;;;;;8.87;7.17;;;;;;;;;;5072163;28;20375;-81
2022/03/12 01:32:51;;;;;;;12.60;8.07;;;;;;;;;;5070830;28;20287;-80
2022/03/12 01:35:17;;;;;;;10.10;7.90;;;;;;;;;;5066614;28;20284;-80
2022/03/12 01:37:44;;;;;;;10.27;7.73;;;;;;;;;;5063524;28;20204;-80
2022/03/12 01:40:11;;;;;;;8.93;7.43;;;;;;;;;;5046981;28;20223;-80
2022/03/12 01:42:37;;;;;;;11.13;7.87;;;;;;;;;;5063243;28;20184;-81
2022/03/12 01:45:09;;;;;;;11.97;8.10;;;;;;;;;;5070789;28;20185;-81
2022/03/12 01:47:35;;;;;;;11.40;7.60;;;;;;;;;;5069266;28;20177;-81
2022/03/12 01:50:02;;;;;;;10.27;7.67;;;;;;;;;;5067543;28;20255;-80
2022/03/12 01:52:30;;;;;;;11.73;7.90;;;;;;;;;;5052458;28;20219;-80
2022/03/12 01:54:57;;;;;;;9.80;7.87;;;;;;;;;;5067662;28;20221;-80
2022/03/12 01:57:23;;;;;;;16.00;9.90;;;;;;;;;;5040890;28;20227;-81
2022/03/12 01:59:51;;;;;;;13.03;8.13;;;;;;;;;;5053094;28;20227;-82
2022/03/12 02:02:17;;;;;;;11.97;8.07;;;;;;;;;;5065708;28;20268;-81
2022/03/12 02:04:52;;;;;;;10.13;7.77;;;;;;;;;;5067411;28;20197;-81
2022/03/12 02:07:18;;;;;;;14.43;8.07;;;;;;;;;;5064265;28;20802;-84
2022/03/12 02:09:46;;;;;;;13.50;8.47;;;;;;;;;;5046432;28;20186;-80
2022/03/12 02:12:13;;;;;;;12.53;8.20;;;;;;;;;;5066384;28;20251;-79
2022/03/12 02:14:39;;;;;;;11.03;7.47;;;;;;;;;;5050007;28;20262;-80
2022/03/12 02:17:09;;;;;;;13.70;9.53;;;;;;;;;;5042059;28;20185;-80
2022/03/12 02:19:35;;;;;;;12.80;9.17;;;;;;;;;;5057203;28;20258;-81
2022/03/12 02:22:03;;;;;;;14.57;9.43;;;;;;;;;;5054404;28;20182;-81
2022/03/12 02:24:31;;;;;;;11.83;8.33;;;;;;;;;;5059646;28;20810;-83
2022/03/12 02:26:58;;;;;;;11.77;8.53;;;;;;;;;;5061253;28;20185;-80
2022/03/12 02:29:25;;;;;;;12.60;8.97;;;;;;;;;;5083242;28;20177;-80
2022/03/12 02:31:55;;;;;;;16.20;8.80;;;;;;;;;;5065775;28;20419;-81
2022/03/12 02:34:23;;;;;;;11.80;8.00;;;;;;;;;;5063963;28;20284;-80
2022/03/12 02:36:51;;;;;;;30.27;18.63;;;;;;;;;;5064015;28;20200;-80
2022/03/12 02:39:19;;;;;;;21.80;14.30;;;;;;;;;;5067560;28;20177;-82
2022/03/12 02:41:46;;;;;;;17.43;12.27;;;;;;;;;;5067795;28;20702;-80
2022/03/12 02:44:17;;;;;;;13.23;9.87;;;;;;;;;;5067300;28;20257;-80
2022/03/12 02:47:05;;;;;;;12.80;8.73;;;;;;;;;;5065308;28;20688;-80
2022/03/12 02:49:37;;;;;;;12.27;8.77;;;;;;;;;;5049929;28;20287;-81
2022/03/12 02:52:03;;;;;;;12.37;7.80;;;;;;;;;;5060703;28;20269;-80
2022/03/12 02:54:30;;;;;;;11.90;7.60;;;;;;;;;;5045402;28;20235;-79
2022/03/12 02:56:57;;;;;;;11.33;8.20;;;;;;;;;;5048766;28;20274;-80
2022/03/12 02:59:23;;;;;;;11.03;7.87;;;;;;;;;;5048419;28;20189;-83
2022/03/12 03:01:50;;;;;;;11.27;8.00;;;;;;;;;;5063342;28;20240;-81
2022/03/12 03:04:18;;;;;;;9.13;7.23;;;;;;;;;;5052500;28;20187;-80
2022/03/12 03:06:44;;;;;;;12.27;8.20;;;;;;;;;;5064710;28;20189;-80
2022/03/12 03:09:10;;;;;;;12.83;9.27;;;;;;;;;;5064254;28;20224;-81
2022/03/12 03:11:39;;;;;;;10.63;8.03;;;;;;;;;;5029846;28;20601;-79
2022/03/12 03:14:12;;;;;;;9.63;7.70;;;;;;;;;;5069413;28;20177;-80
2022/03/12 03:16:39;;;;;;;15.77;10.63;;;;;;;;;;5068813;28;20189;-81
2022/03/12 03:19:06;;;;;;;10.20;7.87;;;;;;;;;;5050948;28;20189;-80
2022/03/12 03:21:35;;;;;;;10.37;8.00;;;;;;;;;;5067139;28;20284;-80
2022/03/12 03:24:01;;;;;;;13.40;8.33;;;;;;;;;;5046995;28;20615;-79
2022/03/12 03:26:39;;;;;;;11.37;8.23;;;;;;;;;;5066902;28;20181;-80
2022/03/12 03:29:06;;;;;;;12.10;8.17;;;;;;;;;;5068176;28;20193;-80
2022/03/12 03:31:33;;;;;;;16.23;10.20;;;;;;;;;;5059876;28;20259;-80
2022/03/12 03:33:59;;;;;;;13.97;10.23;;;;;;;;;;5068225;28;20200;-80
2022/03/12 03:36:25;;;;;;;17.20;10.37;;;;;;;;;;5048735;28;20260;-80
2022/03/12 03:38:51;;;;;;;24.07;14.47;;;;;;;;;;5068441;28;20189;-80
2022/03/12 03:41:17;;;;;;;12.93;9.43;;;;;;;;;;5068917;28;20296;-80
2022/03/12 03:43:45;;;;;;;12.03;8.70;;;;;;;;;;5068529;28;20243;-80
2022/03/12 03:46:11;;;;;;;13.90;8.87;;;;;;;;;;5050590;28;20196;-81
2022/03/12 03:48:39;;;;;;;13.93;10.17;;;;;;;;;;5051524;28;20556;-80
2022/03/12 03:51:05;;;;;;;13.77;9.30;;;;;;;;;;5068441;28;20321;-82
2022/03/12 03:53:31;;;;;;;10.87;8.47;;;;;;;;;;5068685;28;20216;-80
2022/03/12 03:55:59;;;;;;;12.27;9.23;;;;;;;;;;5068085;28;20189;-80
2022/03/12 03:58:26;;;;;;;12.67;8.67;;;;;;;;;;5065208;28;20185;-80
2022/03/12 04:00:54;;;;;;;11.83;8.30;;;;;;;;;;5032515;28;20625;-80
2022/03/12 04:03:20;;;;;;;12.00;8.17;;;;;;;;;;5048670;28;20174;-80
2022/03/12 04:05:47;;;;;;;10.87;8.33;;;;;;;;;;5047510;28;20177;-81
2022/03/12 04:08:13;;;;;;;10.57;7.73;;;;;;;;;;5065644;28;20754;-79
2022/03/12 04:10:39;;;;;;;10.50;8.07;;;;;;;;;;5066014;28;20209;-80
2022/03/12 04:13:11;;;;;;;11.77;7.70;;;;;;;;;;5062272;28;20711;-80
2022/03/12 04:15:37;;;;;;;11.37;7.77;;;;;;;;;;5065338;28;20200;-79
2022/03/12 04:18:05;;;;;;;12.50;8.27;;;;;;;;;;5067436;28;20189;-80
2022/03/12 04:20:32;;;;;;;12.37;8.33;;;;;;;;;;5064330;28;20331;-80
2022/03/12 04:22:58;;;;;;;12.90;9.00;;;;;;;;;;5044832;28;20614;-81
2022/03/12 04:25:27;;;;;;;11.47;8.70;;;;;;;;;;5065550;28;20661;-81
2022/03/12 04:27:54;;;;;;;11.20;8.13;;;;;;;;;;5068507;28;20189;-81
2022/03/12 04:30:20;;;;;;;13.27;8.60;;;;;;;;;;5065240;28;20200;-80
2022/03/12 04:32:47;;;;;;;10.23;8.43;;;;;;;;;;5067801;28;20208;-80
2022/03/12 04:35:13;;;;;;;11.73;8.27;;;;;;;;;;5054614;28;20525;-82
2022/03/12 04:37:40;;;;;;;13.87;8.50;;;;;;;;;;5065982;28;20197;-80
2022/03/12 04:40:10;;;;;;;15.47;8.37;;;;;;;;;;5065952;28;20579;-80
2022/03/12 04:42:40;;;;;;;10.73;8.03;;;;;;;;;;5063814;28;20182;-80
2022/03/12 04:45:07;;;;;;;11.77;8.20;;;;;;;;;;5047686;28;20193;-82
2022/03/12 04:47:34;;;;;;;10.40;7.83;;;;;;;;;;5049710;28;20181;-80
2022/03/12 04:50:02;;;;;;;13.30;8.13;;;;;;;;;;5063227;28;20231;-80
2022/03/12 04:52:30;;;;;;;15.63;9.63;;;;;;;;;;5061378;28;20177;-80
2022/03/12 04:54:56;;;;;;;17.67;10.43;;;;;;;;;;5063216;28;20200;-81
2022/03/12 04:57:23;;;;;;;13.60;8.50;;;;;;;;;;5043000;28;20192;-79
2022/03/12 04:59:49;;;;;;;11.40;7.23;;;;;;;;;;5064773;28;20201;-80
2022/03/12 05:02:15;;;;;;;9.83;7.60;;;;;;;;;;5076211;28;20318;-80
2022/03/12 05:04:41;;;;;;;12.10;8.47;;;;;;;;;;5045932;28;20181;-82
2022/03/12 05:07:09;;;;;;;13.67;9.30;;;;;;;;;;5078468;28;20217;-83
2022/03/12 05:09:35;;;;;;;12.77;8.90;;;;;;;;;;5047362;28;20645;-80
2022/03/12 05:12:05;;;;;;;12.97;9.00;;;;;;;;;;5054633;28;20193;-80
2022/03/12 05:14:35;;;;;;;11.53;8.63;;;;;;;;;;5072127;28;20185;-80
2022/03/12 05:17:08;;;;;;;12.47;8.33;;;;;;;;;;5051202;28;20228;-80
2022/03/12 05:19:36;;;;;;;15.77;8.60;;;;;;;;;;5066931;28;20181;-81
2022/03/12 05:22:04;;;;;;;10.90;7.80;;;;;;;;;;5064146;28;20190;-82
2022/03/12 05:24:30;;;;;;;10.97;8.13;;;;;;;;;;5049621;28;20209;-81
2022/03/12 05:26:58;;;;;;;13.17;8.50;;;;;;;;;;5059039;28;20208;-80
2022/03/12 05:29:24;;;;;;;10.80;7.80;;;;;;;;;;5069686;28;20690;-80
2022/03/12 05:31:54;;;;;;;11.37;8.27;;;;;;;;;;5068102;28;20225;-80
2022/03/12 05:34:22;;;;;;;11.17;8.00;;;;;;;;;;5051431;28;20201;-80
2022/03/12 05:36:49;;;;;;;13.77;7.80;;;;;;;;;;5067328;28;20251;-80
2022/03/12 05:39:15;;;;;;;11.53;8.57;;;;;;;;;;5067557;28;20181;-80
2022/03/12 05:41:44;;;;;;;12.67;8.13;;;;;;;;;;5062895;28;20217;-80
2022/03/12 05:44:14;;;;;;;12.27;8.30;;;;;;;;;;5063304;28;20173;-80
2022/03/12 05:46:43;;;;;;;13.43;9.23;;;;;;;;;;5062526;28;20202;-79
2022/03/12 05:49:09;;;;;;;14.00;8.27;;;;;;;;;;5060243;28;20328;-79
2022/03/12 05:51:36;;;;;;;14.67;8.83;;;;;;;;;;5027462;28;20227;-80
2022/03/12 05:54:03;;;;;;;16.73;9.40;;;;;;;;;;5044257;28;20193;-80
2022/03/12 05:56:29;;;;;;;13.70;8.53;;;;;;;;;;5065044;28;20189;-82
2022/03/12 05:58:56;;;;;;;13.70;8.57;;;;;;;;;;5062443;28;20196;-79
2022/03/12 06:01:22;;;;;;;14.67;8.73;;;;;;;;;;5063619;28;20209;-81
2022/03/12 06:03:49;;;;;;;12.83;8.93;;;;;;;;;;5067576;28;20201;-81
2022/03/12 06:06:15;;;;;;;11.07;8.00;;;;;;;;;;5063300;28;20189;-81
2022/03/12 06:08:42;;;;;;;11.30;8.03;;;;;;;;;;5063607;28;20181;-83
2022/03/12 06:11:12;;;;;;;11.80;8.30;;;;;;;;;;5065099;28;20205;-80
2022/03/12 06:13:39;;;;;;;11.87;8.00;;;;;;;;;;5068749;28;20268;-80
2022/03/12 06:16:06;;;;;;;11.00;7.47;;;;;;;;;;5071831;28;20189;-80
2022/03/12 06:18:33;;;;;;;11.93;8.13;;;;;;;;;;5066672;28;20189;-79
2022/03/12 06:21:00;;;;;;;12.07;7.90;;;;;;;;;;5063536;28;20213;-80
2022/03/12 06:23:28;;;;;;;12.77;8.53;;;;;;;;;;5064798;28;20262;-80
2022/03/12 06:25:55;;;;;;;13.17;8.37;;;;;;;;;;5065247;28;20212;-79
2022/03/12 06:28:21;;;;;;;12.20;8.30;;;;;;;;;;5034438;28;20253;-79
2022/03/12 06:30:53;;;;;;;10.50;8.10;;;;;;;;;;5061332;28;20582;-81
2022/03/12 06:33:19;;;;;;;9.87;7.37;;;;;;;;;;5060440;28;20616;-79
2022/03/12 06:35:47;;;;;;;11.37;8.20;;;;;;;;;;5043424;28;20278;-81
2022/03/12 06:38:14;;;;;;;12.87;7.63;;;;;;;;;;5064422;28;20181;-84
2022/03/12 06:40:41;;;;;;;11.93;8.53;;;;;;;;;;5067570;28;20580;-80
2022/03/12 06:43:19;;;;;;;10.17;7.90;;;;;;;;;;5059454;28;20188;-80
2022/03/12 06:45:49;;;;;;;12.33;8.13;;;;;;;;;;5062648;28;20189;-79
2022/03/12 06:48:16;;;;;;;13.63;8.67;;;;;;;;;;5062054;28;20260;-79
2022/03/12 06:50:42;;;;;;;14.40;8.67;;;;;;;;;;5061292;28;20287;-80
2022/03/12 06:53:09;;;;;;;14.47;8.37;;;;;;;;;;5058157;28;20196;-79
2022/03/12 06:55:35;;;;;;;9.93;7.57;;;;;;;;;;5056231;28;20197;-79
2022/03/12 06:58:01;;;;;;;11.07;7.87;;;;;;;;;;5060827;28;20200;-79
2022/03/12 07:00:29;;;;;;;13.63;8.67;;;;;;;;;;5060190;28;20215;-78
2022/03/12 07:02:56;;;;;;;13.77;8.60;;;;;;;;;;5045243;28;20201;-79
2022/03/12 07:05:22;;;;;;;12.93;8.30;;;;;;;;;;5061351;28;20736;-79
2022/03/12 07:07:51;;;;;;;12.03;8.10;;;;;;;;;;5058071;28;20213;-79
2022/03/12 07:10:17;;;;;;;11.97;8.50;;;;;;;;;;5065573;28;20225;-79
2022/03/12 07:12:45;;;;;;;12.87;8.33;;;;;;;;;;5046025;28;20197;-80
2022/03/12 07:15:11;;;;;;;14.83;8.30;;;;;;;;;;5066261;28;20201;-79
2022/03/12 07:17:37;;;;;;;16.00;9.43;;;;;;;;;;5063464;28;20185;-80
2022/03/12 07:20:05;;;;;;;13.20;8.43;;;;;;;;;;5058505;28;20209;-77
2022/03/12 07:22:32;;;;;;;10.80;7.57;;;;;;;;;;5065498;28;20272;-79
2022/03/12 07:24:58;;;;;;;13.27;8.73;;;;;;;;;;5066652;28;20173;-79
2022/03/12 07:27:25;;;;;;;9.37;6.87;;;;;;;;;;5062898;28;20874;-79
2022/03/12 07:29:51;;;;;;;12.33;8.30;;;;;;;;;;5065453;28;20235;-79
2022/03/12 07:32:17;;;;;;;13.33;9.07;;;;;;;;;;5061978;28;20185;-79
2022/03/12 07:34:44;;;;;;;16.30;8.90;;;;;;;;;;5067415;28;20256;-79
2022/03/12 07:37:11;;;;;;;14.13;9.20;;;;;;;;;;5069318;28;20645;-79
2022/03/12 07:39:41;;;;;;;14.53;9.27;;;;;;;;;;5069680;28;20183;-79
2022/03/12 07:42:07;;;;;;;13.50;8.80;;;;;;;;;;5061778;28;20181;-79
2022/03/12 07:44:40;;;;;;;13.53;8.90;;;;;;;;;;5044124;28;20543;-79
2022/03/12 07:47:07;;;;;;;14.27;8.53;;;;;;;;;;5060603;28;20181;-79
2022/03/12 07:49:34;;;;;;;14.07;9.50;;;;;;;;;;5057258;28;20521;-79
2022/03/12 07:52:00;;;;;;;12.90;9.00;;;;;;;;;;5060477;28;20173;-79
2022/03/12 07:54:27;;;;;;;13.30;9.13;;;;;;;;;;5057967;28;20750;-79
2022/03/12 07:56:53;;;;;;;12.63;8.77;;;;;;;;;;5060561;28;20259;-79
2022/03/12 07:59:20;;;;;;;12.50;9.33;;;;;;;;;;5060532;28;20207;-79
2022/03/12 08:01:46;;;;;;;17.43;9.87;;;;;;;;;;5059423;28;20216;-79
2022/03/12 08:04:13;;;;;;;12.53;8.10;;;;;;;;;;5057650;28;20278;-79
2022/03/12 08:06:40;;;;;;;13.70;9.60;;;;;;;;;;5059716;28;20708;-79
2022/03/12 08:09:07;;;;;;;12.13;9.00;;;;;;;;;;5061211;28;20185;-79
2022/03/12 08:11:34;;;;;;;10.77;8.33;;;;;;;;;;5063623;28;20428;-75
2022/03/12 08:14:02;;;;;;;14.63;8.60;;;;;;;;;;5064532;28;20188;-75
2022/03/12 08:16:33;;;;;;;12.73;8.93;;;;;;;;;;5079000;28;20207;-76
2022/03/12 08:19:03;;;;;;;15.23;8.97;;;;;;;;;;5068013;28;20224;-74
2022/03/12 08:21:30;;;;;;;12.10;8.57;;;;;;;;;;5062982;28;20217;-78
2022/03/12 08:23:56;;;;;;;9.90;8.13;;;;;;;;;;5063879;28;20197;-79
2022/03/12 08:26:22;;;;;;;11.60;7.97;;;;;;;;;;5061557;28;20238;-79
2022/03/12 08:28:48;;;;;;;15.10;8.87;;;;;;;;;;5062039;28;20186;-79
2022/03/12 08:31:15;;;;;;;11.33;8.67;;;;;;;;;;5069282;28;20230;-79
2022/03/12 08:33:42;;;;;;;12.37;8.93;;;;;;;;;;5069706;28;20181;-79
2022/03/12 08:36:08;;;;;;;12.20;9.10;;;;;;;;;;5064832;28;20185;-79
2022/03/12 08:38:35;;;;;;;12.27;8.90;;;;;;;;;;5065830;28;20606;-78
2022/03/12 08:41:02;;;;;;;15.00;9.17;;;;;;;;;;5067864;28;20776;-76
2022/03/12 08:43:28;;;;;;;11.80;8.77;;;;;;;;;;5066354;28;20217;-76
2022/03/12 08:45:54;;;;;;;13.23;9.37;;;;;;;;;;5063645;28;20644;-76
2022/03/12 08:48:20;;;;;;;11.03;8.70;;;;;;;;;;5061416;28;20192;-76
2022/03/12 08:50:47;;;;;;;13.33;9.57;;;;;;;;;;5060602;28;20266;-78
2022/03/12 08:53:13;;;;;;;12.37;8.87;;;;;;;;;;5053934;28;20283;-77
2022/03/12 08:55:40;;;;;;;13.10;9.10;;;;;;;;;;5053185;28;20205;-76
2022/03/12 08:58:06;;;;;;;12.03;8.83;;;;;;;;;;5056361;28;20184;-76
2022/03/12 09:00:35;;;;;;;12.70;9.07;;;;;;;;;;5059881;28;20266;-77
2022/03/12 09:03:01;;;;;;;12.37;8.43;;;;;;;;;;5056723;28;20197;-77
2022/03/12 09:05:28;;;;;;;12.10;9.13;;;;;;;;;;5055542;28;20239;-78
2022/03/12 09:07:54;;;;;;;11.00;8.20;;;;;;;;;;5053769;28;20425;-76
2022/03/12 09:10:23;;;;;;;10.27;8.13;;;;;;;;;;5051569;28;20212;-76
2022/03/12 09:12:49;;;;;;;11.27;8.47;;;;;;;;;;5058312;28;20798;-78
2022/03/12 09:15:20;;;;;;;10.67;8.27;;;;;;;;;;5059302;28;20193;-79
2022/03/12 09:17:46;;;;;;;12.30;8.93;;;;;;;;;;5061670;28;20189;-78
2022/03/12 09:20:13;;;;;;;11.17;8.03;;;;;;;;;;5063244;28;20220;-78
2022/03/12 09:22:40;;;;;;;14.77;8.50;;;;;;;;;;5055273;28;20192;-77
2022/03/12 09:25:13;;;;;;;10.87;8.97;;;;;;;;;;5060484;28;20293;-77
2022/03/12 09:27:40;;;;;;;11.00;9.27;;;;;;;;;;5065451;28;20181;-77
2022/03/12 09:30:07;;;;;;;11.03;8.90;;;;;;;;;;5057745;28;20672;-78
2022/03/12 09:32:34;;;;;;;13.67;9.40;;;;;;;;;;5062349;28;20189;-80
2022/03/12 09:35:00;;;;;;;12.07;9.23;;;;;;;;;;5058903;28;20193;-79
2022/03/12 09:37:26;;;;;;;14.83;8.90;;;;;;;;;;5070984;28;20649;-78
2022/03/12 09:39:52;;;;;;;10.77;9.03;;;;;;;;;;5068615;28;20253;-78
2022/03/12 09:42:18;;;;;;;13.47;9.40;;;;;;;;;;5063574;28;20181;-80
2022/03/12 09:44:44;;;;;;;12.83;8.80;;;;;;;;;;5075055;28;20204;-82
2022/03/12 09:47:12;;;;;;;13.47;9.67;;;;;;;;;;5062899;28;20278;-79
2022/03/12 09:49:38;;;;;;;12.23;9.73;;;;;;;;;;5066253;28;20181;-80
2022/03/12 09:52:05;;;;;;;11.63;9.10;;;;;;;;;;5057377;28;20665;-79
2022/03/12 09:54:31;;;;;;;10.90;8.87;;;;;;;;;;5058514;28;20233;-79
2022/03/12 09:56:58;;;;;;;11.53;9.00;;;;;;;;;;5057944;28;20217;-80
2022/03/12 09:59:25;;;;;;;14.57;9.87;;;;;;;;;;5062267;28;20173;-79
2022/03/12 10:01:53;;;;;;;10.47;9.00;;;;;;;;;;5058738;28;20580;-80
2022/03/12 10:04:19;;;;;;;12.07;9.60;;;;;;;;;;5063118;28;20177;-79
2022/03/12 10:06:47;;;;;;;11.33;9.53;;;;;;;;;;5060315;28;20234;-79
2022/03/12 10:09:13;;;;;;;11.23;9.07;;;;;;;;;;5041940;28;20673;-80
2022/03/12 10:11:41;;;;;;;13.13;9.43;;;;;;;;;;5059715;28;20303;-80
2022/03/12 10:14:09;;;;;;;12.03;9.70;;;;;;;;;;5045626;28;20227;-79
2022/03/12 10:16:36;;;;;;;10.70;9.13;;;;;;;;;;5061079;28;20190;-80
2022/03/12 10:19:03;;;;;;;13.53;10.23;;;;;;;;;;5058343;28;20272;-81
2022/03/12 10:21:30;;;;;;;15.17;10.80;;;;;;;;;;5057841;28;20224;-81
2022/03/12 10:23:57;;;;;;;13.70;10.20;;;;;;;;;;5043427;28;20199;-81
2022/03/12 10:26:24;;;;;;;17.97;10.40;;;;;;;;;;5059022;28;20176;-79
2022/03/12 10:28:50;;;;;;;13.67;10.43;;;;;;;;;;5055948;28;20193;-79
2022/03/12 10:31:19;;;;;;;12.57;10.47;;;;;;;;;;5055470;28;20734;-79
2022/03/12 10:33:46;;;;;;;14.60;10.50;;;;;;;;;;5056950;28;20605;-80
2022/03/12 10:36:13;;;;;;;15.63;9.87;;;;;;;;;;5060243;28;20205;-80
2022/03/12 10:38:44;;;;;;;15.53;10.70;;;;;;;;;;5056692;28;20181;-81
2022/03/12 10:41:10;;;;;;;13.80;10.93;;;;;;;;;;5060268;28;20240;-80
2022/03/12 10:44:03;;;;;;;16.30;10.43;;;;;;;;;;5059041;28;20276;-80
2022/03/12 10:46:30;;;;;;;14.83;10.47;;;;;;;;;;5068976;28;20190;-80
2022/03/12 10:48:57;;;;;;;13.37;10.47;;;;;;;;;;5061469;28;20181;-80
2022/03/12 10:51:25;;;;;;;13.67;10.10;;;;;;;;;;5055119;28;21267;-80
2022/03/12 10:53:52;;;;;;;14.17;10.70;;;;;;;;;;5052431;28;20200;-81
2022/03/12 10:56:20;;;;;;;13.83;10.90;;;;;;;;;;5059275;28;20637;-80
2022/03/12 10:58:46;;;;;;;14.73;10.30;;;;;;;;;;5050821;28;20311;-80
2022/03/12 11:01:23;;;;;;;13.40;10.77;;;;;;;;;;5051835;28;20240;-82
2022/03/12 11:03:49;;;;;;;14.87;10.13;;;;;;;;;;5052678;28;20181;-77
2022/03/12 11:06:15;;;;;;;12.23;10.37;;;;;;;;;;5066369;28;20181;-77
2022/03/12 11:08:42;;;;;;;13.93;10.80;;;;;;;;;;5049696;28;20560;-81
2022/03/12 11:11:16;;;;;;;12.97;10.90;;;;;;;;;;5060621;28;20213;-81
2022/03/12 11:13:45;;;;;;;14.77;11.70;;;;;;;;;;5057092;28;20657;-81
2022/03/12 11:16:12;;;;;;;14.03;11.27;;;;;;;;;;5051967;28;20193;-81
2022/03/12 11:18:39;;;;;;;16.27;11.80;;;;;;;;;;5051824;28;20190;-81
2022/03/12 11:21:06;;;;;;;15.23;10.80;;;;;;;;;;5051740;28;20229;-82
2022/03/12 11:23:32;;;;;;;16.33;11.30;;;;;;;;;;5051437;28;20630;-81
2022/03/12 11:26:05;;;;;;;14.90;11.47;;;;;;;;;;5053033;28;20904;-81
2022/03/12 11:28:32;;;;;;;15.73;12.07;;;;;;;;;;5053813;28;20181;-81
2022/03/12 11:30:58;;;;;;;13.43;11.13;;;;;;;;;;5051764;28;20282;-80
2022/03/12 11:33:25;;;;;;;13.73;10.90;;;;;;;;;;5054042;28;20178;-81
2022/03/12 11:35:58;;;;;;;13.47;10.43;;;;;;;;;;5057145;28;20193;-81
2022/03/12 11:38:25;;;;;;;13.57;10.73;;;;;;;;;;5070592;28;20234;-81
2022/03/12 11:40:53;;;;;;;15.80;11.70;;;;;;;;;;5054092;28;20208;-81
2022/03/12 11:43:33;;;;;;;12.73;10.90;;;;;;;;;;5057284;28;20207;-81
2022/03/12 11:45:59;;;;;;;12.80;10.33;;;;;;;;;;5070433;28;20242;-82
2022/03/12 11:48:27;;;;;;;11.50;9.20;;;;;;;;;;5056229;28;20196;-83
2022/03/12 11:50:53;;;;;;;10.17;8.53;;;;;;;;;;5053764;28;20251;-80
2022/03/12 11:53:19;;;;;;;11.53;8.77;;;;;;;;;;5053696;28;20197;-82
2022/03/12 11:55:50;;;;;;;10.27;8.27;;;;;;;;;;5051228;28;20587;-81
2022/03/12 11:58:19;;;;;;;12.90;8.53;;;;;;;;;;5052931;28;20197;-80
2022/03/12 12:00:47;;;;;;;9.73;7.83;;;;;;;;;;5035328;28;20323;-80
2022/03/12 12:03:14;;;;;;;12.27;9.47;;;;;;;;;;5052759;28;22498;-82
2022/03/12 12:05:43;;;;;;;11.33;9.33;;;;;;;;;;5052512;28;20643;-83
2022/03/12 12:08:09;;;;;;;11.73;8.47;;;;;;;;;;5052192;28;20249;-79
2022/03/12 12:10:41;;;;;;;12.87;8.93;;;;;;;;;;5052838;28;20208;-81
2022/03/12 12:13:08;;;;;;;10.70;8.50;;;;;;;;;;5053501;28;20196;-80
2022/03/12 12:15:36;;;;;;;10.43;7.97;;;;;;;;;;5056856;28;20699;-81
2022/03/12 12:18:08;;;;;;;7.30;6.57;;;;;;;;;;5057469;28;20306;-78
2022/03/12 12:20:34;;;;;;;7.83;6.97;;;;;;;;;;5051964;28;20633;-79
2022/03/12 12:23:01;;;;;;;9.20;7.20;;;;;;;;;;5058464;28;20192;-79
2022/03/12 12:25:33;;;;;;;10.40;7.77;;;;;;;;;;5058085;28;20604;-79
2022/03/12 12:27:59;;;;;;;10.00;7.57;;;;;;;;;;5061850;28;20179;-79
2022/03/12 12:30:25;;;;;;;8.33;7.53;;;;;;;;;;5076654;28;20204;-79
2022/03/12 12:32:52;;;;;;;8.73;7.20;;;;;;;;;;5069046;28;21129;-79
2022/03/12 12:35:22;;;;;;;9.17;7.40;;;;;;;;;;5065479;28;20177;-79
2022/03/12 12:38:07;;;;;;;8.53;7.60;;;20.60;38.10;;;;;;5060412;28;20215;-79
2022/03/12 12:40:51;;;;;;;9.33;7.60;;;20.50;38.00;;;;;;5062212;28;20595;-79
2022/03/12 12:43:32;;;;;;;10.40;8.00;;;19.90;38.40;;;;;;5058688;28;20192;-79
2022/03/12 12:46:00;;;;;;;10.33;8.33;;;19.30;39.10;;;;;;5060922;28;20838;-78
2022/03/12 12:48:33;;;;;;;9.73;7.87;;;18.80;40.00;;;;;;5068757;28;20249;-80
2022/03/12 12:51:12;;;;;;;9.13;8.23;;;18.30;40.60;;;;;;5064281;28;20856;-80
2022/03/12 12:53:46;;;;;;;12.97;7.83;;;18.50;40.80;;;;;;5067633;28;20248;-79
2022/03/12 12:56:25;;;;;;;10.90;7.60;;;19.10;40.10;;;;;;5064284;28;20618;-80
2022/03/12 12:58:54;;;;;;;7.97;6.97;;;19.70;39.70;;;;;;5054500;28;20181;-80
2022/03/12 13:01:32;;;;;;;7.10;6.40;;;20.20;39.20;;;;;;5056607;28;20217;-80
2022/03/12 13:03:58;;;;;;;8.67;7.77;;;20.60;38.70;;;;;;5055280;28;21294;-80
2022/03/12 13:06:39;;;;;;;9.20;7.37;;;21.00;38.30;;;;;;5056931;28;20188;-80
2022/03/12 13:09:18;;;;;;;9.13;7.40;;;21.00;38.10;;;;;;5059437;28;20207;-80
2022/03/12 13:11:58;;;;;;;9.80;8.00;;;20.90;38.20;;;;;;5064892;28;20239;-80
2022/03/12 13:14:49;;;;;;;10.57;7.57;;;20.90;38.00;;;;;;5055743;28;20353;-81
2022/03/12 13:17:33;;;;;;;9.60;7.87;;;21.00;37.90;;;;;;5057477;28;20220;-81
2022/03/12 13:19:59;;;;;;;8.57;7.67;;;21.20;37.20;;;;;;5054738;28;20221;-81
2022/03/12 13:22:41;;;;;;;8.53;7.73;;;21.00;37.00;;;;;;5059557;28;20790;-81
2022/03/12 13:25:07;;;;;;;7.67;6.87;;;20.90;37.30;;;;;;5042955;28;20186;-82
2022/03/12 13:27:35;;;;;;;8.90;7.83;;;;;;;;;;5058664;28;20185;-81
2022/03/12 13:30:09;;;;;;;10.30;8.00;;;;;;;;;;5055364;28;20282;-82
2022/03/12 13:32:36;;;;;;;8.87;7.97;;;;;;;;;;5058254;28;20553;-81
2022/03/12 13:35:02;;;;;;;9.10;8.00;;;;;;;;;;5059677;28;20250;-82
2022/03/12 13:37:29;;;;;;;9.67;7.03;;;;;;;;;;5059666;28;21862;-81
2022/03/12 13:40:05;;;;;;;9.90;8.23;;;;;;;;;;5056997;28;20597;-82
2022/03/12 13:42:32;;;;;;;8.73;7.30;;;;;;;;;;5055699;28;20738;-79
2022/03/12 13:44:58;;;;;;;8.93;8.03;;;;;;;;;;5053367;28;20195;-79
2022/03/12 13:47:25;;;;;;;8.30;7.40;;;;;;;;;;5057246;28;20666;-78
2022/03/12 13:49:52;;;;;;;9.90;7.50;;;;;;;;;;5047934;28;20714;-78
2022/03/12 13:52:20;;;;;;;7.50;6.80;;;;;;;;;;5058575;28;20196;-79
2022/03/12 13:55:00;;;;;;;10.90;7.43;;;;;;;;;;5057834;28;20184;-79
2022/03/12 13:57:32;;;;;;;8.53;7.63;;;;;;;;;;5063871;28;20173;-79
2022/03/12 14:00:02;;;;;;;8.47;7.67;;;;;;;;;;5063012;28;20353;-78
2022/03/12 14:02:55;;;;;;;8.20;7.40;;;;;;;;;;5064743;28;20260;-78
2022/03/12 14:05:27;;;;;;;8.27;7.47;;;23.60;33.90;;;;;;5059861;28;20597;-78
2022/03/12 14:07:55;;;;;;;9.30;7.70;;;23.70;34.80;;;;;;5043471;28;20239;-78
2022/03/12 14:10:25;;;;;;;7.43;6.73;;;23.70;34.40;;;;;;5062815;28;20217;-78
2022/03/12 14:13:03;;;;;;;8.73;7.83;;;23.50;34.60;;;;;;5064601;28;20241;-79
2022/03/12 14:15:32;;;;;;;10.93;7.90;;;23.50;34.70;;;;;;5064805;28;20274;-79
2022/03/12 14:18:07;;;;;;;8.50;7.67;;;23.30;34.50;;;;;;5057019;28;20230;-78
2022/03/12 14:20:37;;;;;;;8.30;7.40;;;22.30;35.30;;;;;;5055718;28;20832;-78
2022/03/12 14:23:04;;;;;;;8.47;7.67;;;21.50;36.20;;;;;;5061924;28;20262;-78
2022/03/12 14:25:34;;;;;;;8.30;7.13;;;20.80;36.90;;;;;;5073250;28;20203;-77